sensor_id;sensor_type;location;lat;lon;timestamp;P1;durP1;ratioP1;P2;durP2;ratioP2
25581;SDS011;13462;50.764;4.332;2022-08-07T00:00:09;3.28;;;2.28;;
25581;SDS011;13462;50.764;4.332;2022-08-07T00:02:35;2.97;;;2.72;;
25581;SDS011;13462;50.764;4.332;2022-08-07T00:05:01;6.82;;;2.42;;
25581;SDS011;13462;50.764;4.332;2022-08-07T00:07:28;5.28;;;2.33;;
25581;SDS011;13462;50.764;4.332;2022-08-07T00:09:53;4.00;;;2.88;;
25581;SDS011;13462;50.764;4.332;2022-08-07T00:12:19;4.95;;;2.50;;
25581;SDS011;13462;50.764;4.332;2022-08-07T00:14:44;4.97;;;3.05;;
25581;SDS011;13462;50.764;4.332;2022-08-07T00:17:10;3.47;;;2.47;;
25581;SDS011;13462;50.764;4.332;2022-08-07T00:19:36;2.85;;;2.53;;
25581;SDS011;13462;50.764;4.332;2022-08-07T00:22:02;4.45;;;2.70;;
25581;SDS011;13462;50.764;4.332;2022-08-07T00:24:28;5.50;;;2.95;;
25581;SDS011;13462;50.764;4.332;2022-08-07T00:26:54;4.22;;;2.88;;
25581;SDS011;13462;50.764;4.332;2022-08-07T00:29:19;4.13;;;2.58;;
25581;SDS011;13462;50.764;4.332;2022-08-07T00:31:50;5.80;;;3.15;;
25581;SDS011;13462;50.764;4.332;2022-08-07T00:34:16;5.72;;;3.22;;
25581;SDS011;13462;50.764;4.332;2022-08-07T00:36:42;6.32;;;2.70;;
25581;SDS011;13462;50.764;4.332;2022-08-07T00:39:08;7.38;;;2.90;;
25581;SDS011;13462;50.764;4.332;2022-08-07T00:41:34;5.88;;;2.75;;
25581;SDS011;13462;50.764;4.332;2022-08-07T00:44:00;4.03;;;2.90;;
25581;SDS011;13462;50.764;4.332;2022-08-07T00:46:25;2.85;;;2.58;;
25581;SDS011;13462;50.764;4.332;2022-08-07T00:48:51;7.68;;;2.90;;
25581;SDS011;13462;50.764;4.332;2022-08-07T00:51:16;4.70;;;2.83;;
25581;SDS011;13462;50.764;4.332;2022-08-07T00:53:42;5.43;;;2.67;;
25581;SDS011;13462;50.764;4.332;2022-08-07T00:56:08;4.28;;;3.03;;
25581;SDS011;13462;50.764;4.332;2022-08-07T00:58:36;7.03;;;2.75;;
25581;SDS011;13462;50.764;4.332;2022-08-07T01:01:05;5.07;;;3.03;;
25581;SDS011;13462;50.764;4.332;2022-08-07T01:03:30;5.55;;;3.28;;
25581;SDS011;13462;50.764;4.332;2022-08-07T01:05:56;4.18;;;2.70;;
25581;SDS011;13462;50.764;4.332;2022-08-07T01:08:21;3.38;;;2.70;;
25581;SDS011;13462;50.764;4.332;2022-08-07T01:10:47;4.35;;;2.63;;
25581;SDS011;13462;50.764;4.332;2022-08-07T01:13:13;5.88;;;2.80;;
25581;SDS011;13462;50.764;4.332;2022-08-07T01:15:39;3.58;;;2.95;;
25581;SDS011;13462;50.764;4.332;2022-08-07T01:18:06;2.97;;;2.72;;
25581;SDS011;13462;50.764;4.332;2022-08-07T01:20:33;5.55;;;2.97;;
25581;SDS011;13462;50.764;4.332;2022-08-07T01:23:09;3.38;;;2.97;;
25581;SDS011;13462;50.764;4.332;2022-08-07T01:25:36;6.07;;;3.17;;
25581;SDS011;13462;50.764;4.332;2022-08-07T01:28:04;4.53;;;3.05;;
25581;SDS011;13462;50.764;4.332;2022-08-07T01:30:29;4.03;;;3.00;;
25581;SDS011;13462;50.764;4.332;2022-08-07T01:32:57;4.18;;;2.97;;
25581;SDS011;13462;50.764;4.332;2022-08-07T01:35:23;4.03;;;3.13;;
25581;SDS011;13462;50.764;4.332;2022-08-07T01:37:49;3.13;;;2.83;;
25581;SDS011;13462;50.764;4.332;2022-08-07T01:40:16;5.28;;;3.40;;
25581;SDS011;13462;50.764;4.332;2022-08-07T01:42:45;5.57;;;2.95;;
25581;SDS011;13462;50.764;4.332;2022-08-07T01:45:10;6.10;;;3.40;;
25581;SDS011;13462;50.764;4.332;2022-08-07T01:47:36;6.47;;;3.13;;
25581;SDS011;13462;50.764;4.332;2022-08-07T01:50:03;8.32;;;3.42;;
25581;SDS011;13462;50.764;4.332;2022-08-07T01:52:30;4.15;;;3.05;;
25581;SDS011;13462;50.764;4.332;2022-08-07T01:54:58;6.43;;;3.42;;
25581;SDS011;13462;50.764;4.332;2022-08-07T01:57:27;7.45;;;3.33;;
25581;SDS011;13462;50.764;4.332;2022-08-07T02:02:51;7.35;;;3.80;;
25581;SDS011;13462;50.764;4.332;2022-08-07T02:05:31;4.57;;;3.63;;
25581;SDS011;13462;50.764;4.332;2022-08-07T02:08:02;5.35;;;3.58;;
25581;SDS011;13462;50.764;4.332;2022-08-07T02:10:31;5.53;;;3.40;;
25581;SDS011;13462;50.764;4.332;2022-08-07T02:12:59;5.13;;;3.13;;
25581;SDS011;13462;50.764;4.332;2022-08-07T02:15:27;7.63;;;3.90;;
25581;SDS011;13462;50.764;4.332;2022-08-07T02:17:54;3.55;;;3.17;;
25581;SDS011;13462;50.764;4.332;2022-08-07T02:20:21;5.20;;;3.42;;
25581;SDS011;13462;50.764;4.332;2022-08-07T02:22:49;4.10;;;3.40;;
25581;SDS011;13462;50.764;4.332;2022-08-07T02:25:21;6.30;;;3.17;;
25581;SDS011;13462;50.764;4.332;2022-08-07T02:27:48;6.15;;;3.95;;
25581;SDS011;13462;50.764;4.332;2022-08-07T02:30:15;4.82;;;4.03;;
25581;SDS011;13462;50.764;4.332;2022-08-07T02:32:41;6.88;;;4.03;;
25581;SDS011;13462;50.764;4.332;2022-08-07T02:35:08;5.28;;;3.75;;
25581;SDS011;13462;50.764;4.332;2022-08-07T02:37:37;8.20;;;4.20;;
25581;SDS011;13462;50.764;4.332;2022-08-07T02:40:05;4.38;;;3.97;;
25581;SDS011;13462;50.764;4.332;2022-08-07T02:42:33;9.13;;;4.78;;
25581;SDS011;13462;50.764;4.332;2022-08-07T02:45:00;4.53;;;4.13;;
25581;SDS011;13462;50.764;4.332;2022-08-07T02:47:28;8.60;;;4.47;;
25581;SDS011;13462;50.764;4.332;2022-08-07T02:49:54;7.97;;;4.30;;
25581;SDS011;13462;50.764;4.332;2022-08-07T02:52:22;6.35;;;4.18;;
25581;SDS011;13462;50.764;4.332;2022-08-07T02:54:59;7.15;;;4.07;;
25581;SDS011;13462;50.764;4.332;2022-08-07T02:57:30;8.25;;;3.95;;
25581;SDS011;13462;50.764;4.332;2022-08-07T03:00:00;4.63;;;3.47;;
25581;SDS011;13462;50.764;4.332;2022-08-07T03:02:26;4.65;;;3.17;;
25581;SDS011;13462;50.764;4.332;2022-08-07T03:04:52;4.68;;;3.90;;
25581;SDS011;13462;50.764;4.332;2022-08-07T03:07:20;5.30;;;3.88;;
25581;SDS011;13462;50.764;4.332;2022-08-07T03:09:46;4.60;;;3.78;;
25581;SDS011;13462;50.764;4.332;2022-08-07T03:12:12;5.53;;;4.82;;
25581;SDS011;13462;50.764;4.332;2022-08-07T03:14:39;5.10;;;4.18;;
25581;SDS011;13462;50.764;4.332;2022-08-07T03:17:06;6.07;;;4.18;;
25581;SDS011;13462;50.764;4.332;2022-08-07T03:19:32;9.82;;;4.80;;
25581;SDS011;13462;50.764;4.332;2022-08-07T03:21:59;8.20;;;4.65;;
25581;SDS011;13462;50.764;4.332;2022-08-07T03:24:26;6.07;;;5.15;;
25581;SDS011;13462;50.764;4.332;2022-08-07T03:26:51;7.68;;;5.65;;
25581;SDS011;13462;50.764;4.332;2022-08-07T03:29:18;6.15;;;4.97;;
25581;SDS011;13462;50.764;4.332;2022-08-07T03:31:45;7.38;;;5.10;;
25581;SDS011;13462;50.764;4.332;2022-08-07T03:34:12;7.88;;;5.38;;
25581;SDS011;13462;50.764;4.332;2022-08-07T03:36:40;10.60;;;5.13;;
25581;SDS011;13462;50.764;4.332;2022-08-07T03:39:07;7.00;;;5.55;;
25581;SDS011;13462;50.764;4.332;2022-08-07T03:41:36;8.00;;;5.45;;
25581;SDS011;13462;50.764;4.332;2022-08-07T03:44:02;11.63;;;5.80;;
25581;SDS011;13462;50.764;4.332;2022-08-07T03:46:28;6.57;;;4.97;;
25581;SDS011;13462;50.764;4.332;2022-08-07T03:48:56;8.05;;;5.13;;
25581;SDS011;13462;50.764;4.332;2022-08-07T03:51:22;8.50;;;5.35;;
25581;SDS011;13462;50.764;4.332;2022-08-07T03:53:50;8.68;;;5.78;;
25581;SDS011;13462;50.764;4.332;2022-08-07T03:56:20;6.93;;;5.22;;
25581;SDS011;13462;50.764;4.332;2022-08-07T03:58:47;5.82;;;5.10;;
25581;SDS011;13462;50.764;4.332;2022-08-07T04:01:14;7.10;;;5.25;;
25581;SDS011;13462;50.764;4.332;2022-08-07T04:03:41;7.00;;;5.30;;
25581;SDS011;13462;50.764;4.332;2022-08-07T04:06:08;8.00;;;4.97;;
25581;SDS011;13462;50.764;4.332;2022-08-07T04:08:35;7.68;;;5.15;;
25581;SDS011;13462;50.764;4.332;2022-08-07T04:11:03;6.53;;;4.78;;
25581;SDS011;13462;50.764;4.332;2022-08-07T04:13:29;7.40;;;4.97;;
25581;SDS011;13462;50.764;4.332;2022-08-07T04:15:57;9.70;;;5.78;;
25581;SDS011;13462;50.764;4.332;2022-08-07T04:18:22;8.10;;;5.10;;
25581;SDS011;13462;50.764;4.332;2022-08-07T04:20:48;6.22;;;5.03;;
25581;SDS011;13462;50.764;4.332;2022-08-07T04:23:14;8.25;;;5.57;;
25581;SDS011;13462;50.764;4.332;2022-08-07T04:25:40;7.28;;;6.10;;
25581;SDS011;13462;50.764;4.332;2022-08-07T04:28:07;10.90;;;5.95;;
25581;SDS011;13462;50.764;4.332;2022-08-07T04:30:34;6.68;;;5.75;;
25581;SDS011;13462;50.764;4.332;2022-08-07T04:33:04;6.68;;;5.07;;
25581;SDS011;13462;50.764;4.332;2022-08-07T04:35:31;7.47;;;5.75;;
25581;SDS011;13462;50.764;4.332;2022-08-07T04:37:57;8.48;;;5.43;;
25581;SDS011;13462;50.764;4.332;2022-08-07T04:40:22;6.75;;;5.38;;
25581;SDS011;13462;50.764;4.332;2022-08-07T04:42:48;8.27;;;5.65;;
25581;SDS011;13462;50.764;4.332;2022-08-07T04:45:14;6.55;;;4.70;;
25581;SDS011;13462;50.764;4.332;2022-08-07T04:47:54;8.82;;;5.07;;
25581;SDS011;13462;50.764;4.332;2022-08-07T04:50:34;6.47;;;4.60;;
25581;SDS011;13462;50.764;4.332;2022-08-07T04:53:13;8.95;;;5.75;;
25581;SDS011;13462;50.764;4.332;2022-08-07T04:55:52;14.40;;;4.60;;
25581;SDS011;13462;50.764;4.332;2022-08-07T05:06:04;8.02;;;4.50;;
25581;SDS011;13462;50.764;4.332;2022-08-07T05:08:35;6.03;;;4.05;;
25581;SDS011;13462;50.764;4.332;2022-08-07T05:11:33;7.45;;;4.32;;
25581;SDS011;13462;50.764;4.332;2022-08-07T05:14:16;7.28;;;4.78;;
25581;SDS011;13462;50.764;4.332;2022-08-07T05:16:46;8.23;;;5.22;;
25581;SDS011;13462;50.764;4.332;2022-08-07T05:19:18;5.30;;;4.68;;
25581;SDS011;13462;50.764;4.332;2022-08-07T05:21:50;9.48;;;5.43;;
25581;SDS011;13462;50.764;4.332;2022-08-07T05:24:19;6.10;;;4.93;;
25581;SDS011;13462;50.764;4.332;2022-08-07T05:26:48;8.05;;;6.00;;
25581;SDS011;13462;50.764;4.332;2022-08-07T05:29:17;9.18;;;6.50;;
25581;SDS011;13462;50.764;4.332;2022-08-07T05:31:45;9.13;;;6.38;;
25581;SDS011;13462;50.764;4.332;2022-08-07T05:34:14;7.38;;;5.53;;
25581;SDS011;13462;50.764;4.332;2022-08-07T05:36:42;10.43;;;6.45;;
25581;SDS011;13462;50.764;4.332;2022-08-07T05:39:10;8.38;;;6.15;;
25581;SDS011;13462;50.764;4.332;2022-08-07T05:41:37;8.77;;;6.60;;
25581;SDS011;13462;50.764;4.332;2022-08-07T05:44:05;8.73;;;6.40;;
25581;SDS011;13462;50.764;4.332;2022-08-07T05:46:31;12.13;;;6.80;;
25581;SDS011;13462;50.764;4.332;2022-08-07T05:48:59;12.65;;;6.47;;
25581;SDS011;13462;50.764;4.332;2022-08-07T05:51:28;9.15;;;6.82;;
25581;SDS011;13462;50.764;4.332;2022-08-07T05:53:54;11.15;;;7.50;;
25581;SDS011;13462;50.764;4.332;2022-08-07T05:56:19;9.43;;;6.80;;
25581;SDS011;13462;50.764;4.332;2022-08-07T05:58:46;7.80;;;6.18;;
25581;SDS011;13462;50.764;4.332;2022-08-07T06:01:13;10.27;;;7.20;;
25581;SDS011;13462;50.764;4.332;2022-08-07T06:03:42;19.48;;;6.63;;
25581;SDS011;13462;50.764;4.332;2022-08-07T06:06:18;9.27;;;6.63;;
25581;SDS011;13462;50.764;4.332;2022-08-07T06:08:45;11.43;;;6.72;;
25581;SDS011;13462;50.764;4.332;2022-08-07T06:11:11;7.75;;;6.07;;
25581;SDS011;13462;50.764;4.332;2022-08-07T06:13:38;7.13;;;5.57;;
25581;SDS011;13462;50.764;4.332;2022-08-07T06:16:07;9.52;;;5.53;;
25581;SDS011;13462;50.764;4.332;2022-08-07T06:18:33;7.18;;;4.93;;
25581;SDS011;13462;50.764;4.332;2022-08-07T06:20:59;9.00;;;5.55;;
25581;SDS011;13462;50.764;4.332;2022-08-07T06:23:26;8.95;;;4.78;;
25581;SDS011;13462;50.764;4.332;2022-08-07T06:25:52;5.90;;;4.00;;
25581;SDS011;13462;50.764;4.332;2022-08-07T06:28:18;4.82;;;3.72;;
25581;SDS011;13462;50.764;4.332;2022-08-07T06:30:44;7.63;;;4.20;;
25581;SDS011;13462;50.764;4.332;2022-08-07T06:33:10;6.07;;;4.30;;
25581;SDS011;13462;50.764;4.332;2022-08-07T06:35:35;6.18;;;3.80;;
25581;SDS011;13462;50.764;4.332;2022-08-07T06:38:02;5.82;;;3.38;;
25581;SDS011;13462;50.764;4.332;2022-08-07T06:40:29;5.82;;;3.65;;
25581;SDS011;13462;50.764;4.332;2022-08-07T06:42:58;8.75;;;3.30;;
25581;SDS011;13462;50.764;4.332;2022-08-07T06:45:25;5.65;;;3.60;;
25581;SDS011;13462;50.764;4.332;2022-08-07T06:47:52;3.72;;;3.35;;
25581;SDS011;13462;50.764;4.332;2022-08-07T06:50:18;6.00;;;3.53;;
25581;SDS011;13462;50.764;4.332;2022-08-07T06:52:45;4.70;;;3.25;;
25581;SDS011;13462;50.764;4.332;2022-08-07T06:55:19;5.82;;;4.03;;
25581;SDS011;13462;50.764;4.332;2022-08-07T06:57:48;5.22;;;3.42;;
25581;SDS011;13462;50.764;4.332;2022-08-07T07:00:15;4.72;;;4.10;;
25581;SDS011;13462;50.764;4.332;2022-08-07T07:02:42;8.75;;;4.25;;
25581;SDS011;13462;50.764;4.332;2022-08-07T07:05:08;5.75;;;3.78;;
25581;SDS011;13462;50.764;4.332;2022-08-07T07:07:34;4.90;;;3.20;;
25581;SDS011;13462;50.764;4.332;2022-08-07T07:09:59;6.65;;;3.28;;
25581;SDS011;13462;50.764;4.332;2022-08-07T07:12:29;3.85;;;3.30;;
25581;SDS011;13462;50.764;4.332;2022-08-07T07:23:01;4.82;;;3.53;;
25581;SDS011;13462;50.764;4.332;2022-08-07T07:25:28;6.57;;;3.35;;
25581;SDS011;13462;50.764;4.332;2022-08-07T07:30:40;8.57;;;3.80;;
25581;SDS011;13462;50.764;4.332;2022-08-07T07:33:11;5.35;;;3.47;;
25581;SDS011;13462;50.764;4.332;2022-08-07T07:35:42;4.55;;;3.67;;
25581;SDS011;13462;50.764;4.332;2022-08-07T07:38:10;6.07;;;4.00;;
25581;SDS011;13462;50.764;4.332;2022-08-07T07:40:38;4.70;;;3.50;;
25581;SDS011;13462;50.764;4.332;2022-08-07T07:43:05;3.78;;;3.05;;
25581;SDS011;13462;50.764;4.332;2022-08-07T07:45:32;4.05;;;3.03;;
25581;SDS011;13462;50.764;4.332;2022-08-07T07:47:58;3.60;;;3.25;;
25581;SDS011;13462;50.764;4.332;2022-08-07T07:50:26;6.00;;;3.28;;
25581;SDS011;13462;50.764;4.332;2022-08-07T07:52:53;5.05;;;3.78;;
25581;SDS011;13462;50.764;4.332;2022-08-07T07:55:20;6.32;;;3.00;;
25581;SDS011;13462;50.764;4.332;2022-08-07T07:57:47;3.92;;;2.97;;
25581;SDS011;13462;50.764;4.332;2022-08-07T08:00:14;4.15;;;2.95;;
25581;SDS011;13462;50.764;4.332;2022-08-07T08:02:40;5.50;;;3.20;;
25581;SDS011;13462;50.764;4.332;2022-08-07T08:05:09;4.10;;;2.90;;
25581;SDS011;13462;50.764;4.332;2022-08-07T08:07:37;4.05;;;3.05;;
25581;SDS011;13462;50.764;4.332;2022-08-07T08:10:04;4.40;;;3.30;;
25581;SDS011;13462;50.764;4.332;2022-08-07T08:12:32;4.22;;;3.00;;
25581;SDS011;13462;50.764;4.332;2022-08-07T08:14:58;3.50;;;3.20;;
25581;SDS011;13462;50.764;4.332;2022-08-07T08:17:25;6.15;;;2.90;;
25581;SDS011;13462;50.764;4.332;2022-08-07T08:19:52;3.75;;;3.00;;
25581;SDS011;13462;50.764;4.332;2022-08-07T08:22:22;4.57;;;3.10;;
25581;SDS011;13462;50.764;4.332;2022-08-07T08:25:08;5.10;;;2.90;;
25581;SDS011;13462;50.764;4.332;2022-08-07T08:27:54;4.63;;;3.28;;
25581;SDS011;13462;50.764;4.332;2022-08-07T08:30:21;2.65;;;2.45;;
25581;SDS011;13462;50.764;4.332;2022-08-07T08:32:51;5.70;;;2.95;;
25581;SDS011;13462;50.764;4.332;2022-08-07T08:35:18;4.55;;;2.70;;
25581;SDS011;13462;50.764;4.332;2022-08-07T08:37:47;3.58;;;3.15;;
25581;SDS011;13462;50.764;4.332;2022-08-07T08:40:20;4.95;;;3.00;;
25581;SDS011;13462;50.764;4.332;2022-08-07T08:42:55;3.22;;;2.65;;
25581;SDS011;13462;50.764;4.332;2022-08-07T08:48:54;4.20;;;2.88;;
25581;SDS011;13462;50.764;4.332;2022-08-07T08:51:53;3.33;;;2.65;;
25581;SDS011;13462;50.764;4.332;2022-08-07T08:54:40;5.22;;;2.97;;
25581;SDS011;13462;50.764;4.332;2022-08-07T08:57:28;3.60;;;2.92;;
25581;SDS011;13462;50.764;4.332;2022-08-07T09:00:06;5.10;;;2.80;;
25581;SDS011;13462;50.764;4.332;2022-08-07T09:24:29;4.07;;;2.83;;
25581;SDS011;13462;50.764;4.332;2022-08-07T09:27:08;5.20;;;2.75;;
25581;SDS011;13462;50.764;4.332;2022-08-07T09:29:55;5.78;;;2.67;;
25581;SDS011;13462;50.764;4.332;2022-08-07T09:32:49;3.57;;;3.00;;
25581;SDS011;13462;50.764;4.332;2022-08-07T09:38:21;4.97;;;2.88;;
25581;SDS011;13462;50.764;4.332;2022-08-07T09:49:20;4.25;;;2.60;;
25581;SDS011;13462;50.764;4.332;2022-08-07T09:55:13;5.47;;;3.25;;
25581;SDS011;13462;50.764;4.332;2022-08-07T09:58:13;4.47;;;2.78;;
25581;SDS011;13462;50.764;4.332;2022-08-07T10:03:50;3.22;;;2.33;;
25581;SDS011;13462;50.764;4.332;2022-08-07T10:06:52;2.85;;;2.65;;
25581;SDS011;13462;50.764;4.332;2022-08-07T10:15:58;4.53;;;2.88;;
25581;SDS011;13462;50.764;4.332;2022-08-07T10:43:55;3.22;;;2.63;;
25581;SDS011;13462;50.764;4.332;2022-08-07T10:46:27;5.30;;;2.70;;
25581;SDS011;13462;50.764;4.332;2022-08-07T10:54:43;3.10;;;2.80;;
25581;SDS011;13462;50.764;4.332;2022-08-07T10:57:25;3.58;;;2.88;;
25581;SDS011;13462;50.764;4.332;2022-08-07T11:00:06;3.17;;;2.20;;
25581;SDS011;13462;50.764;4.332;2022-08-07T11:10:54;2.72;;;2.50;;
25581;SDS011;13462;50.764;4.332;2022-08-07T11:13:48;3.65;;;2.33;;
25581;SDS011;13462;50.764;4.332;2022-08-07T11:21:36;3.63;;;2.92;;
25581;SDS011;13462;50.764;4.332;2022-08-07T11:29:49;2.97;;;2.45;;
25581;SDS011;13462;50.764;4.332;2022-08-07T11:35:24;2.67;;;1.98;;
25581;SDS011;13462;50.764;4.332;2022-08-07T11:38:03;3.80;;;2.17;;
25581;SDS011;13462;50.764;4.332;2022-08-07T11:43:27;2.78;;;1.67;;
25581;SDS011;13462;50.764;4.332;2022-08-07T11:57:19;4.35;;;2.10;;
25581;SDS011;13462;50.764;4.332;2022-08-07T12:00:04;4.03;;;2.42;;
25581;SDS011;13462;50.764;4.332;2022-08-07T12:07:56;3.45;;;2.30;;
25581;SDS011;13462;50.764;4.332;2022-08-07T12:10:39;3.08;;;2.35;;
25581;SDS011;13462;50.764;4.332;2022-08-07T12:13:26;2.33;;;2.17;;
25581;SDS011;13462;50.764;4.332;2022-08-07T12:16:01;1.92;;;1.83;;
25581;SDS011;13462;50.764;4.332;2022-08-07T12:18:40;4.57;;;2.40;;
25581;SDS011;13462;50.764;4.332;2022-08-07T12:26:46;2.90;;;2.50;;
25581;SDS011;13462;50.764;4.332;2022-08-07T12:29:27;4.85;;;2.13;;
25581;SDS011;13462;50.764;4.332;2022-08-07T12:34:39;3.78;;;2.42;;
25581;SDS011;13462;50.764;4.332;2022-08-07T12:37:07;2.65;;;2.33;;
25581;SDS011;13462;50.764;4.332;2022-08-07T12:39:34;2.63;;;2.42;;
25581;SDS011;13462;50.764;4.332;2022-08-07T12:42:01;4.78;;;2.30;;
25581;SDS011;13462;50.764;4.332;2022-08-07T12:44:29;2.45;;;2.25;;
25581;SDS011;13462;50.764;4.332;2022-08-07T12:55:11;2.85;;;2.10;;
25581;SDS011;13462;50.764;4.332;2022-08-07T12:57:45;2.50;;;2.30;;
25581;SDS011;13462;50.764;4.332;2022-08-07T13:00:12;2.95;;;2.15;;
25581;SDS011;13462;50.764;4.332;2022-08-07T13:08:39;3.35;;;2.10;;
25581;SDS011;13462;50.764;4.332;2022-08-07T13:11:22;2.08;;;1.85;;
25581;SDS011;13462;50.764;4.332;2022-08-07T13:14:11;4.88;;;2.33;;
25581;SDS011;13462;50.764;4.332;2022-08-07T13:17:39;4.13;;;1.92;;
25581;SDS011;13462;50.764;4.332;2022-08-07T13:19:46;3.08;;;1.90;;
25581;SDS011;13462;50.764;4.332;2022-08-07T13:27:36;4.20;;;2.38;;
25581;SDS011;13462;50.764;4.332;2022-08-07T13:30:06;3.35;;;1.95;;
25581;SDS011;13462;50.764;4.332;2022-08-07T13:35:46;3.60;;;2.80;;
25581;SDS011;13462;50.764;4.332;2022-08-07T13:38:38;2.08;;;1.90;;
25581;SDS011;13462;50.764;4.332;2022-08-07T13:41:16;3.00;;;1.90;;
25581;SDS011;13462;50.764;4.332;2022-08-07T13:43:52;2.30;;;2.10;;
25581;SDS011;13462;50.764;4.332;2022-08-07T13:46:19;2.88;;;2.00;;
25581;SDS011;13462;50.764;4.332;2022-08-07T13:48:47;3.05;;;2.40;;
25581;SDS011;13462;50.764;4.332;2022-08-07T13:51:16;3.03;;;2.28;;
25581;SDS011;13462;50.764;4.332;2022-08-07T13:53:48;2.83;;;1.77;;
25581;SDS011;13462;50.764;4.332;2022-08-07T13:56:17;2.25;;;2.05;;
25581;SDS011;13462;50.764;4.332;2022-08-07T13:58:47;2.03;;;1.90;;
25581;SDS011;13462;50.764;4.332;2022-08-07T14:01:33;2.55;;;2.10;;
25581;SDS011;13462;50.764;4.332;2022-08-07T14:04:13;2.40;;;2.20;;
25581;SDS011;13462;50.764;4.332;2022-08-07T14:06:41;2.90;;;1.88;;
25581;SDS011;13462;50.764;4.332;2022-08-07T14:09:17;3.65;;;2.10;;
25581;SDS011;13462;50.764;4.332;2022-08-07T14:12:00;4.00;;;2.05;;
25581;SDS011;13462;50.764;4.332;2022-08-07T14:14:38;6.07;;;2.30;;
25581;SDS011;13462;50.764;4.332;2022-08-07T14:17:07;2.65;;;2.20;;
25581;SDS011;13462;50.764;4.332;2022-08-07T14:19:39;2.85;;;2.10;;
25581;SDS011;13462;50.764;4.332;2022-08-07T14:22:14;4.80;;;2.22;;
25581;SDS011;13462;50.764;4.332;2022-08-07T14:24:47;2.63;;;1.80;;
25581;SDS011;13462;50.764;4.332;2022-08-07T14:27:15;3.17;;;1.90;;
25581;SDS011;13462;50.764;4.332;2022-08-07T14:29:52;3.05;;;2.35;;
25581;SDS011;13462;50.764;4.332;2022-08-07T14:32:22;2.60;;;2.08;;
25581;SDS011;13462;50.764;4.332;2022-08-07T14:34:50;2.53;;;2.08;;
25581;SDS011;13462;50.764;4.332;2022-08-07T14:37:17;3.70;;;2.20;;
25581;SDS011;13462;50.764;4.332;2022-08-07T14:39:44;3.13;;;2.28;;
25581;SDS011;13462;50.764;4.332;2022-08-07T14:42:12;3.97;;;2.50;;
25581;SDS011;13462;50.764;4.332;2022-08-07T14:44:48;6.03;;;2.20;;
25581;SDS011;13462;50.764;4.332;2022-08-07T14:47:18;3.70;;;1.80;;
25581;SDS011;13462;50.764;4.332;2022-08-07T14:49:44;3.15;;;2.13;;
25581;SDS011;13462;50.764;4.332;2022-08-07T14:52:13;2.88;;;2.08;;
25581;SDS011;13462;50.764;4.332;2022-08-07T14:54:40;4.72;;;2.40;;
25581;SDS011;13462;50.764;4.332;2022-08-07T14:57:09;2.67;;;2.03;;
25581;SDS011;13462;50.764;4.332;2022-08-07T14:59:36;3.25;;;2.00;;
25581;SDS011;13462;50.764;4.332;2022-08-07T15:02:13;2.55;;;2.15;;
25581;SDS011;13462;50.764;4.332;2022-08-07T15:04:41;2.42;;;2.22;;
25581;SDS011;13462;50.764;4.332;2022-08-07T15:07:10;2.83;;;2.40;;
25581;SDS011;13462;50.764;4.332;2022-08-07T15:09:41;4.20;;;2.22;;
25581;SDS011;13462;50.764;4.332;2022-08-07T15:12:09;5.40;;;2.28;;
25581;SDS011;13462;50.764;4.332;2022-08-07T15:14:39;2.20;;;1.85;;
25581;SDS011;13462;50.764;4.332;2022-08-07T15:17:14;3.05;;;2.67;;
25581;SDS011;13462;50.764;4.332;2022-08-07T15:19:53;2.78;;;2.40;;
25581;SDS011;13462;50.764;4.332;2022-08-07T15:22:26;5.13;;;2.95;;
25581;SDS011;13462;50.764;4.332;2022-08-07T15:24:55;4.35;;;2.15;;
25581;SDS011;13462;50.764;4.332;2022-08-07T15:27:23;3.28;;;2.40;;
25581;SDS011;13462;50.764;4.332;2022-08-07T15:29:50;2.67;;;2.25;;
25581;SDS011;13462;50.764;4.332;2022-08-07T15:32:18;3.47;;;2.53;;
25581;SDS011;13462;50.764;4.332;2022-08-07T15:34:46;3.80;;;2.40;;
25581;SDS011;13462;50.764;4.332;2022-08-07T15:37:23;4.45;;;2.80;;
25581;SDS011;13462;50.764;4.332;2022-08-07T15:39:59;2.88;;;2.33;;
25581;SDS011;13462;50.764;4.332;2022-08-07T15:45:06;4.63;;;2.70;;
25581;SDS011;13462;50.764;4.332;2022-08-07T15:47:37;3.08;;;2.30;;
25581;SDS011;13462;50.764;4.332;2022-08-07T15:50:07;4.38;;;2.80;;
25581;SDS011;13462;50.764;4.332;2022-08-07T15:52:36;3.60;;;2.90;;
25581;SDS011;13462;50.764;4.332;2022-08-07T15:55:05;5.97;;;2.60;;
25581;SDS011;13462;50.764;4.332;2022-08-07T15:57:33;3.65;;;2.60;;
25581;SDS011;13462;50.764;4.332;2022-08-07T16:00:00;6.25;;;2.92;;
25581;SDS011;13462;50.764;4.332;2022-08-07T16:02:30;6.72;;;2.60;;
25581;SDS011;13462;50.764;4.332;2022-08-07T16:05:01;2.35;;;2.15;;
25581;SDS011;13462;50.764;4.332;2022-08-07T16:07:30;3.40;;;2.47;;
25581;SDS011;13462;50.764;4.332;2022-08-07T16:10:15;3.10;;;2.35;;
25581;SDS011;13462;50.764;4.332;2022-08-07T16:21:00;3.13;;;2.50;;
25581;SDS011;13462;50.764;4.332;2022-08-07T16:23:33;3.67;;;2.55;;
25581;SDS011;13462;50.764;4.332;2022-08-07T16:28:54;3.65;;;2.60;;
25581;SDS011;13462;50.764;4.332;2022-08-07T16:34:31;6.60;;;2.78;;
25581;SDS011;13462;50.764;4.332;2022-08-07T16:42:52;5.50;;;2.90;;
25581;SDS011;13462;50.764;4.332;2022-08-07T16:45:50;4.65;;;2.88;;
25581;SDS011;13462;50.764;4.332;2022-08-07T16:57:32;5.22;;;3.20;;
25581;SDS011;13462;50.764;4.332;2022-08-07T17:00:10;3.70;;;2.50;;
25581;SDS011;13462;50.764;4.332;2022-08-07T17:07:56;4.60;;;2.70;;
25581;SDS011;13462;50.764;4.332;2022-08-07T17:16:02;5.68;;;3.13;;
25581;SDS011;13462;50.764;4.332;2022-08-07T17:21:25;6.50;;;2.90;;
25581;SDS011;13462;50.764;4.332;2022-08-07T17:29:25;4.15;;;3.00;;
25581;SDS011;13462;50.764;4.332;2022-08-07T17:34:44;5.85;;;2.85;;
25581;SDS011;13462;50.764;4.332;2022-08-07T17:40:09;4.15;;;2.95;;
25581;SDS011;13462;50.764;4.332;2022-08-07T17:42:48;3.67;;;3.05;;
25581;SDS011;13462;50.764;4.332;2022-08-07T17:45:31;5.55;;;3.03;;
25581;SDS011;13462;50.764;4.332;2022-08-07T17:48:04;6.03;;;3.22;;
25581;SDS011;13462;50.764;4.332;2022-08-07T17:50:43;3.83;;;3.15;;
25581;SDS011;13462;50.764;4.332;2022-08-07T17:53:24;3.58;;;3.08;;
25581;SDS011;13462;50.764;4.332;2022-08-07T18:01:23;6.30;;;3.63;;
25581;SDS011;13462;50.764;4.332;2022-08-07T18:09:30;5.10;;;3.75;;
25581;SDS011;13462;50.764;4.332;2022-08-07T18:12:12;3.50;;;3.20;;
25581;SDS011;13462;50.764;4.332;2022-08-07T18:14:56;8.73;;;3.65;;
25581;SDS011;13462;50.764;4.332;2022-08-07T18:20:22;7.93;;;3.83;;
25581;SDS011;13462;50.764;4.332;2022-08-07T18:22:56;6.18;;;3.80;;
25581;SDS011;13462;50.764;4.332;2022-08-07T18:25:30;4.95;;;3.67;;
25581;SDS011;13462;50.764;4.332;2022-08-07T18:30:33;4.97;;;3.33;;
25581;SDS011;13462;50.764;4.332;2022-08-07T18:36:16;7.15;;;4.18;;
25581;SDS011;13462;50.764;4.332;2022-08-07T18:41:43;6.30;;;3.80;;
25581;SDS011;13462;50.764;4.332;2022-08-07T18:44:32;4.37;;;3.13;;
25581;SDS011;13462;50.764;4.332;2022-08-07T18:47:33;5.68;;;4.10;;
25581;SDS011;13462;50.764;4.332;2022-08-07T18:52:51;4.53;;;3.58;;
25581;SDS011;13462;50.764;4.332;2022-08-07T18:55:28;7.45;;;4.20;;
25581;SDS011;13462;50.764;4.332;2022-08-07T19:06:19;5.40;;;3.70;;
25581;SDS011;13462;50.764;4.332;2022-08-07T19:14:41;5.57;;;3.78;;
25581;SDS011;13462;50.764;4.332;2022-08-07T19:17:07;11.93;;;4.00;;
25581;SDS011;13462;50.764;4.332;2022-08-07T19:19:49;6.13;;;3.58;;
25581;SDS011;13462;50.764;4.332;2022-08-07T19:24:53;6.85;;;4.00;;
25581;SDS011;13462;50.764;4.332;2022-08-07T19:27:20;7.75;;;3.83;;
25581;SDS011;13462;50.764;4.332;2022-08-07T19:29:57;8.13;;;4.13;;
25581;SDS011;13462;50.764;4.332;2022-08-07T19:32:32;5.05;;;3.47;;
25581;SDS011;13462;50.764;4.332;2022-08-07T19:35:00;4.60;;;3.35;;
25581;SDS011;13462;50.764;4.332;2022-08-07T19:37:29;9.68;;;3.80;;
25581;SDS011;13462;50.764;4.332;2022-08-07T19:40:00;7.97;;;3.88;;
25581;SDS011;13462;50.764;4.332;2022-08-07T19:42:32;8.02;;;4.03;;